Latest Weather Observations for Cooktown

IDQ60801

Issued at 6:05 am EST Wednesday 1 October 2014 (issued every 30 minutes, with the page automatically refreshed every 10 minutes)

About weather observations | Map of weather stations | Latest weather observations for QLD | Other Formats
Station Details ID: 031209 Name: COOKTOWN AIRPORT Lat: -15.45 Lon: 145.19 Height: 4.8 m
Data from the previous 72 hours. | See also: Recent months at Cooktown
Date/Time
EST
Temp
°C
App
Temp
°C
Dew
Point
Rel
Hum
%
Delta-T
°C
Wind Press
QNH
hPa
Press
MSL
hPa
Rain
since 9 am
mm
Dir
 
Spd
km/h
Gust
km/h
Spd
kts
Gust
kts
01/06:00am 22.4 21.1 13.8 58 5.0 SE 13 22 7 12 1015.3 1015.1 0.0
01/05:30am 22.9 20.9 13.8 56 5.3 ESE 17 26 9 14 1015.1 - 0.0
01/05:00am 23.0 20.4 13.1 53 5.7 ESE 19 28 10 15 1014.8 - 0.0
01/04:30am 22.7 20.4 14.2 58 5.0 ESE 19 24 10 13 1014.7 - 0.0
01/04:00am 22.7 21.1 14.0 58 5.1 SE 15 20 8 11 1014.4 - 0.0
01/03:30am 22.9 21.5 15.6 63 4.4 SE 17 30 9 16 1014.3 - 0.0
01/03:00am 23.1 21.1 15.6 62 4.5 ESE 20 30 11 16 1014.4 1014.3 0.0
01/02:30am 23.4 20.9 15.2 60 4.9 ESE 22 33 12 18 1014.6 - 0.0
01/02:00am 23.2 22.0 15.0 60 4.9 ESE 15 28 8 15 1015.0 - 0.0
01/01:30am 22.9 20.5 14.4 58 5.0 ESE 20 28 11 15 1015.3 - 0.0
01/01:00am 23.2 21.3 15.3 61 4.7 ESE 19 24 10 13 1015.7 - 0.0
01/12:30am 23.0 22.2 16.2 65 4.1 ESE 15 22 8 12 1016.2 - 0.0
01/12:00am 23.2 21.9 15.9 63 4.4 SE 17 26 9 14 1016.5 1016.4 0.0
 
Date/Time
EST
Temp
°C
App
Temp
°C
Dew
Point
Rel
Hum
%
Delta-T
°C
Wind Press
QNH
hPa
Press
MSL
hPa
Rain
since 9 am
mm
Dir
 
Spd
km/h
Gust
km/h
Spd
kts
Gust
kts
30/11:30pm 23.1 22.2 16.9 68 3.8 SE 17 26 9 14 1016.7 - 0.0
30/11:00pm 23.0 22.2 17.0 69 3.7 SE 17 30 9 16 1017.0 - 0.0
30/10:30pm 23.0 22.5 16.8 68 3.8 SE 15 24 8 13 1017.2 - 0.0
30/10:00pm 23.1 22.1 16.5 66 4.0 SE 17 28 9 15 1017.3 - 0.0
30/09:30pm 22.9 22.4 15.9 64 4.2 SE 13 17 7 9 1017.2 - 0.0
30/09:00pm 22.7 22.3 16.3 67 3.9 SE 13 19 7 10 1017.0 1016.8 0.0
30/08:30pm 22.8 22.7 16.9 69 3.6 SE 13 20 7 11 1016.7 - 0.0
30/08:00pm 22.8 22.9 17.5 72 3.3 SE 13 20 7 11 1016.5 - 0.0
30/07:30pm 22.8 22.7 16.9 69 3.6 SE 13 22 7 12 1016.3 - 0.0
30/07:00pm 23.1 22.8 16.4 66 4.1 SE 13 20 7 11 1016.0 - 0.0
30/06:30pm 23.5 22.5 14.7 57 5.2 SE 13 20 7 11 1015.6 - 0.0
30/06:00pm 24.1 21.7 15.3 58 5.3 SE 22 33 12 18 1015.2 1015.1 0.0
30/05:30pm 24.7 22.6 15.2 55 5.7 ESE 20 30 11 16 1015.0 - 0.0
30/05:00pm 25.2 22.7 15.2 54 6.0 ESE 22 39 12 21 1014.9 - 0.0
30/04:30pm 25.6 22.9 15.7 54 6.0 ESE 24 35 13 19 1014.8 - 0.0
30/04:00pm 26.0 22.4 15.2 51 6.5 ESE 28 37 15 20 1014.8 - 0.0
30/03:30pm 26.3 23.5 14.2 47 7.2 ESE 22 37 12 20 1014.8 - 0.0
30/03:00pm 26.6 22.5 12.7 42 8.1 ESE 26 35 14 19 1014.9 1014.9 0.0
30/02:30pm 26.6 23.1 13.5 44 7.7 SE 24 35 13 19 1015.0 - 0.0
30/02:00pm 26.1 21.6 12.6 43 7.8 ESE 28 41 15 22 1015.2 - 0.0
30/01:30pm 26.8 23.0 12.5 41 8.3 ESE 24 37 13 20 1015.5 - 0.0
30/01:00pm 27.1 22.9 12.4 40 8.5 ESE 26 43 14 23 1015.9 - 0.0
30/12:49pm 27.0 22.3 12.1 39 8.6 ESE 28 46 15 25 1016.0 - 0.0
30/12:30pm 27.8 23.2 12.3 38 9.0 ESE 28 41 15 22 1016.2 - 0.0
30/12:01pm 27.7 22.9 12.8 39 8.7 ESE 30 48 16 26 1016.7 - 0.0
30/12:00pm 28.0 23.6 12.8 39 8.9 ESE 28 43 15 23 1016.7 1016.7 0.0
30/11:30am 27.9 23.6 13.3 40 8.6 ESE 28 46 15 25 1017.2 - 0.0
30/11:29am 27.6 23.3 13.1 40 8.5 ESE 28 46 15 25 1017.1 - 0.0
30/11:00am 28.4 24.4 13.1 39 9.0 ESE 26 41 14 22 1017.7 - 0.0
30/10:30am 27.4 21.8 12.2 39 8.8 ESE 33 50 18 27 1017.8 - 0.0
30/10:00am 27.5 22.4 13.2 41 8.4 ESE 32 50 17 27 1017.9 - 0.0
30/09:51am 27.0 21.8 12.7 41 8.3 ESE 32 50 17 27 1017.9 - 0.0
30/09:30am 26.4 22.4 14.1 46 7.3 ESE 28 41 15 22 1017.9 - 0.0
30/09:00am 26.1 21.7 15.1 50 6.6 ESE 32 48 17 26 1017.8 1017.8 0.4
30/08:30am 25.5 22.5 16.9 59 5.3 ESE 28 39 15 21 1017.6 - 0.4
30/08:00am 25.2 22.5 17.5 62 4.8 E 28 37 15 20 1017.1 - 0.4
30/07:30am 24.3 20.6 17.0 63 4.5 E 32 43 17 23 1016.6 - 0.4
30/07:00am 23.6 22.0 17.5 68 3.8 ESE 22 37 12 20 1016.1 - 0.4
30/06:30am 23.4 21.3 17.2 68 3.8 ESE 24 35 13 19 1015.8 - 0.4
30/06:00am 23.0 21.3 18.2 74 3.0 ESE 24 32 13 17 1015.4 1015.3 0.4
30/05:30am 23.1 22.2 18.1 73 3.1 ESE 20 28 11 15 1015.3 - 0.4
30/05:00am 22.9 22.0 17.7 72 3.2 ESE 19 30 10 16 1015.0 - 0.4
30/04:30am 21.7 22.3 18.7 83 1.9 ESE 13 22 7 12 1014.8 - 0.4
30/04:00am 20.9 20.9 18.0 83 1.8 SSE 15 24 8 13 1014.8 - 0.4
30/03:51am 20.6 19.7 17.8 84 1.7 SSE 19 28 10 15 1015.0 - 0.4
30/03:30am 20.7 18.8 18.6 88 1.3 ESE 26 39 14 21 1015.1 - 0.2
30/03:26am 21.0 18.3 18.4 85 1.6 ESE 30 41 16 22 1015.1 - 0.2
30/03:00am 23.1 22.8 18.3 74 3.0 SE 17 26 9 14 1014.7 1014.6 0.2
30/02:30am 23.0 22.2 17.0 69 3.7 ESE 17 28 9 15 1014.9 - 0.2
30/02:00am 23.1 22.0 17.3 70 3.6 ESE 19 30 10 16 1015.1 - 0.2
30/01:30am 23.4 22.0 16.5 65 4.2 ESE 19 26 10 14 1015.4 - 0.2
30/01:00am 23.0 21.7 16.8 68 3.8 ESE 19 26 10 14 1015.5 - 0.2
30/12:30am 22.8 21.8 16.7 68 3.7 ESE 17 26 9 14 1015.9 - 0.2
30/12:00am 22.7 21.8 16.8 69 3.6 ESE 17 22 9 12 1016.2 1016.1 0.2
 
Date/Time
EST
Temp
°C
App
Temp
°C
Dew
Point
Rel
Hum
%
Delta-T
°C
Wind Press
QNH
hPa
Press
MSL
hPa
Rain
since 9 am
mm
Dir
 
Spd
km/h
Gust
km/h
Spd
kts
Gust
kts
29/11:30pm 22.9 21.9 16.5 67 3.9 ESE 17 26 9 14 1016.4 - 0.2
29/11:00pm 22.9 23.0 17.4 71 3.4 ESE 13 17 7 9 1016.6 - 0.2
29/10:30pm 22.6 22.7 17.4 72 3.2 ESE 13 17 7 9 1016.7 - 0.2
29/10:00pm 22.9 22.1 17.2 70 3.5 ESE 17 24 9 13 1016.8 - 0.2
29/09:30pm 23.5 22.2 16.8 66 4.1 ESE 19 32 10 17 1016.8 - 0.2
29/09:00pm 22.8 23.7 18.5 77 2.7 SE 11 19 6 10 1016.6 1016.5 0.2
29/08:30pm 22.5 23.9 18.7 79 2.4 SSE 9 15 5 8 1016.2 - 0.2
29/08:00pm 22.0 23.5 19.0 83 1.9 SE 9 13 5 7 1016.1 - 0.2
29/07:30pm 22.2 23.7 18.0 77 2.6 SSE 7 11 4 6 1015.8 - 0.0
29/07:00pm 22.3 23.3 16.9 71 3.3 SSE 7 11 4 6 1015.6 - 0.0
29/06:30pm 22.3 21.8 17.8 75 2.8 ESE 17 28 9 15 1015.4 - 0.0
29/06:00pm 23.5 23.1 16.3 64 4.4 SE 13 19 7 10 1015.0 1014.9 0.0
29/05:30pm 23.2 22.6 16.7 67 4.0 ESE 15 22 8 12 1014.8 - 0.0
29/05:00pm 23.6 22.2 16.9 66 4.1 ESE 20 37 11 20 1014.6 - 0.0
29/04:30pm 23.8 22.3 16.8 65 4.3 SE 20 32 11 17 1014.6 - 0.0
29/04:00pm 23.8 23.8 18.2 71 3.5 ESE 15 22 8 12 1014.3 - 0.0
29/03:30pm 23.9 22.3 18.3 71 3.5 ESE 24 41 13 22 1014.3 - 0.0
29/03:00pm 26.1 22.3 15.8 53 6.3 ESE 30 39 16 21 1014.2 1014.2 0.0
29/02:30pm 26.9 23.1 14.6 46 7.4 SE 28 43 15 23 1014.4 - 0.0
29/02:00pm 27.2 24.1 13.5 42 8.1 SE 22 35 12 19 1014.6 - 0.0
29/01:30pm 27.7 24.6 13.5 41 8.4 SSE 22 37 12 20 1015.1 - 0.0
29/01:00pm 26.3 24.1 16.0 53 6.3 ESE 22 35 12 19 1015.4 - 0.0
29/12:30pm 27.6 24.2 16.8 51 6.7 ESE 30 43 16 23 1015.7 - 0.0
29/12:00pm 28.0 25.3 17.5 52 6.6 ESE 28 43 15 23 1016.2 1016.1 0.0
29/11:45am 27.0 24.2 17.4 55 6.0 ESE 28 46 15 25 1016.4 - 0.0
29/11:30am 26.1 22.1 16.3 54 6.0 E 32 46 17 25 1016.6 - 0.0
29/11:00am 28.0 25.1 17.1 51 6.8 ESE 28 39 15 21 1016.9 - 0.0
29/10:30am 27.1 25.8 17.2 54 6.2 ESE 20 32 11 17 1017.2 - 0.0
29/10:00am 23.3 22.5 18.4 74 3.1 SE 20 30 11 16 1017.6 - 0.0
29/09:30am 24.2 22.8 16.5 62 4.7 ESE 19 28 10 15 1017.4 - 0.0
29/09:00am 23.4 21.7 17.2 68 3.8 ESE 22 32 12 17 1017.4 1017.3 0.0
29/08:30am 24.5 22.7 15.9 58 5.2 ESE 20 32 11 17 1017.1 - 0.0
29/08:00am 24.4 22.3 15.2 56 5.5 ESE 20 32 11 17 1016.7 - 0.0
29/07:30am 24.7 22.8 15.2 55 5.7 SE 19 30 10 16 1016.3 - 0.0
29/07:00am 24.2 22.2 15.0 56 5.5 ESE 19 33 10 18 1015.9 - 0.0
29/06:30am 23.3 21.6 14.7 58 5.1 ESE 17 26 9 14 1015.6 - 0.0
29/06:00am 23.2 21.2 15.5 62 4.6 ESE 20 28 11 15 1015.2 1015.1 0.0
29/05:30am 23.2 21.3 15.3 61 4.7 ESE 19 28 10 15 1014.9 - 0.0
29/05:00am 23.2 21.2 15.0 60 4.9 ESE 19 30 10 16 1014.5 - 0.0
29/04:30am 23.5 21.4 15.3 60 4.9 ESE 20 30 11 16 1014.1 - 0.0
29/04:00am 23.5 20.7 15.3 60 4.9 ESE 24 35 13 19 1013.9 - 0.0
29/03:30am 23.2 21.5 15.7 62 4.5 ESE 19 28 10 15 1013.7 - 0.0
29/03:00am 23.5 20.2 15.1 59 5.0 ESE 26 39 14 21 1013.8 1013.7 0.0
29/02:30am 23.4 20.6 15.4 60 4.8 ESE 24 33 13 18 1014.0 - 0.0
29/02:00am 23.5 21.1 15.3 60 4.9 ESE 22 35 12 19 1014.5 - 0.0
29/01:30am 23.3 21.2 15.3 60 4.8 ESE 20 32 11 17 1014.7 - 0.0
29/01:00am 23.3 21.2 15.3 60 4.8 ESE 20 32 11 17 1015.2 - 0.0
29/12:30am 23.5 21.0 15.1 59 5.0 ESE 22 32 12 17 1015.5 - 0.0
29/12:00am 23.7 20.9 15.4 59 5.0 ESE 24 39 13 21 1015.8 1015.7 0.0
 
Date/Time
EST
Temp
°C
App
Temp
°C
Dew
Point
Rel
Hum
%
Delta-T
°C
Wind Press
QNH
hPa
Press
MSL
hPa
Rain
since 9 am
mm
Dir
 
Spd
km/h
Gust
km/h
Spd
kts
Gust
kts
28/11:30pm 23.6 21.3 14.6 57 5.3 ESE 20 37 11 20 1016.0 - 0.0
28/11:00pm 23.7 21.5 15.0 58 5.2 ESE 20 35 11 19 1016.5 - 0.0
28/10:30pm 23.8 21.4 14.5 56 5.5 ESE 20 33 11 18 1016.6 - 0.0
28/10:00pm 23.7 21.6 14.6 56 5.4 ESE 19 28 10 15 1016.7 - 0.0
28/09:30pm 23.7 21.4 14.0 54 5.7 ESE 19 30 10 16 1016.4 - 0.0
28/09:00pm 23.9 21.2 13.6 52 6.0 ESE 20 33 11 18 1016.2 1016.0 0.0
28/08:30pm 23.7 21.7 15.0 58 5.2 ESE 19 28 10 15 1015.7 - 0.0
28/08:00pm 23.7 21.2 15.2 59 5.1 ESE 22 35 12 19 1015.5 - 0.0
28/07:30pm 23.8 20.5 15.1 58 5.2 ESE 26 37 14 20 1015.4 - 0.0
28/07:00pm 23.8 21.5 15.7 60 4.9 ESE 22 32 12 17 1015.4 - 0.0
28/06:30pm 23.9 23.1 16.2 62 4.7 ESE 15 24 8 13 1015.3 - 0.0
28/06:00pm 24.6 22.9 15.7 57 5.4 ESE 19 28 10 15 1015.0 1015.0 0.0
28/05:30pm 25.3 24.1 16.1 56 5.6 SE 17 26 9 14 1014.7 - 0.0
28/05:00pm 25.9 24.3 16.1 54 6.0 ESE 19 26 10 14 1014.4 - 0.0
28/04:30pm 26.5 24.9 16.5 54 6.2 ESE 20 30 11 16 1014.3 - 0.0
28/04:00pm 27.2 25.6 16.5 52 6.6 ESE 20 33 11 18 1014.2 - 0.0
28/03:30pm 27.3 23.9 15.7 49 7.1 E 28 39 15 21 1014.1 - 0.0
28/03:00pm 27.6 23.7 15.5 47 7.4 E 30 43 16 23 1014.4 1014.4 0.0
28/02:30pm 27.9 24.5 15.9 48 7.4 E 28 41 15 22 1014.6 - 0.0
28/02:00pm 28.4 23.9 15.5 45 7.9 E 33 44 18 24 1014.7 - 0.0
28/01:30pm 28.9 25.0 16.5 47 7.7 ESE 32 46 17 25 1015.1 - 0.0
28/01:00pm 29.0 24.5 16.3 46 7.9 E 35 48 19 26 1015.3 - 0.0
28/12:41pm 28.9 25.2 15.9 45 8.0 E 30 48 16 26 1015.4 - 0.0
28/12:30pm 29.0 25.3 16.9 48 7.6 E 32 43 17 23 1015.8 - 0.0
28/12:00pm 29.8 26.4 17.7 48 7.7 E 32 44 17 24 1016.4 1016.3 0.0
28/11:30am 28.7 26.5 18.6 54 6.5 E 28 39 15 21 1016.7 - 0.0
28/11:00am 28.6 26.6 18.3 53 6.6 E 26 35 14 19 1017.1 - 0.0
28/10:30am 27.7 25.3 18.3 56 6.0 E 28 37 15 20 1017.4 - 0.0
28/10:00am 28.4 26.6 19.5 58 5.8 E 28 39 15 21 1017.5 - 0.0
28/09:30am 27.6 26.7 19.9 63 5.0 ESE 24 32 13 17 1017.6 - 0.0
28/09:00am 27.5 26.5 19.6 62 5.1 E 24 35 13 19 1017.5 1017.3 0.0
28/08:30am 26.3 24.9 19.6 66 4.3 E 26 33 14 18 1017.3 - 0.0
28/08:00am 26.1 25.0 19.4 66 4.3 E 24 32 13 17 1016.9 - 0.0
28/07:30am 25.1 24.8 19.5 71 3.6 E 20 30 11 16 1016.4 - 0.0
28/07:00am 24.5 24.3 19.3 73 3.3 ESE 19 30 10 16 1016.1 - 0.0
28/06:30am 23.6 24.7 19.7 79 2.5 ESE 13 19 7 10 1015.7 - 0.0

Other Formats:

Comma delimited format used in spreadsheet applications
http://www.bom.gov.au/fwo/IDQ60801/IDQ60801.95283.axf

JavaScript Object Notation format (JSON) in row-major order
http://www.bom.gov.au/fwo/IDQ60801/IDQ60801.95283.json